sensor_id;sensor_type;location;lat;lon;timestamp;P1;durP1;ratioP1;P2;durP2;ratioP2
61344;SDS011;47216;42.656;23.232;2023-05-17T00:00:05;10.47;;;5.70;;
61344;SDS011;47216;42.656;23.232;2023-05-17T00:02:34;10.40;;;7.13;;
61344;SDS011;47216;42.656;23.232;2023-05-17T00:05:00;11.07;;;7.23;;
61344;SDS011;47216;42.656;23.232;2023-05-17T00:07:27;10.50;;;5.30;;
61344;SDS011;47216;42.656;23.232;2023-05-17T00:09:54;10.13;;;5.00;;
61344;SDS011;47216;42.656;23.232;2023-05-17T00:12:24;11.90;;;5.03;;
61344;SDS011;47216;42.656;23.232;2023-05-17T00:14:51;11.03;;;4.73;;
61344;SDS011;47216;42.656;23.232;2023-05-17T00:17:18;17.10;;;5.43;;
61344;SDS011;47216;42.656;23.232;2023-05-17T00:19:45;8.43;;;5.20;;
61344;SDS011;47216;42.656;23.232;2023-05-17T00:22:11;8.27;;;5.33;;
61344;SDS011;47216;42.656;23.232;2023-05-17T00:24:38;18.17;;;6.33;;
61344;SDS011;47216;42.656;23.232;2023-05-17T00:27:05;7.57;;;4.90;;
61344;SDS011;47216;42.656;23.232;2023-05-17T00:29:33;15.53;;;5.93;;
61344;SDS011;47216;42.656;23.232;2023-05-17T00:32:00;12.07;;;5.50;;
61344;SDS011;47216;42.656;23.232;2023-05-17T00:34:27;9.00;;;5.13;;
61344;SDS011;47216;42.656;23.232;2023-05-17T00:36:54;8.30;;;4.67;;
61344;SDS011;47216;42.656;23.232;2023-05-17T00:39:21;7.63;;;4.50;;
61344;SDS011;47216;42.656;23.232;2023-05-17T00:41:48;7.60;;;4.43;;
61344;SDS011;47216;42.656;23.232;2023-05-17T00:44:15;9.60;;;5.63;;
61344;SDS011;47216;42.656;23.232;2023-05-17T00:46:43;11.73;;;4.80;;
61344;SDS011;47216;42.656;23.232;2023-05-17T00:49:11;8.93;;;5.50;;
61344;SDS011;47216;42.656;23.232;2023-05-17T00:51:38;8.33;;;4.40;;
61344;SDS011;47216;42.656;23.232;2023-05-17T00:54:05;6.30;;;4.57;;
61344;SDS011;47216;42.656;23.232;2023-05-17T00:56:33;11.90;;;4.50;;
61344;SDS011;47216;42.656;23.232;2023-05-17T00:59:00;9.60;;;4.13;;
61344;SDS011;47216;42.656;23.232;2023-05-17T01:01:27;11.20;;;4.23;;
61344;SDS011;47216;42.656;23.232;2023-05-17T01:03:56;9.57;;;4.27;;
61344;SDS011;47216;42.656;23.232;2023-05-17T01:06:24;6.57;;;4.80;;
61344;SDS011;47216;42.656;23.232;2023-05-17T01:08:50;10.13;;;5.20;;
61344;SDS011;47216;42.656;23.232;2023-05-17T01:11:20;9.00;;;4.37;;
61344;SDS011;47216;42.656;23.232;2023-05-17T01:13:58;6.43;;;4.73;;
61344;SDS011;47216;42.656;23.232;2023-05-17T01:16:35;11.73;;;4.53;;
61344;SDS011;47216;42.656;23.232;2023-05-17T01:19:09;11.10;;;4.77;;
61344;SDS011;47216;42.656;23.232;2023-05-17T01:21:52;10.50;;;5.00;;
61344;SDS011;47216;42.656;23.232;2023-05-17T01:24:32;11.73;;;4.47;;
61344;SDS011;47216;42.656;23.232;2023-05-17T01:27:12;12.63;;;8.70;;
61344;SDS011;47216;42.656;23.232;2023-05-17T01:29:41;10.67;;;5.23;;
61344;SDS011;47216;42.656;23.232;2023-05-17T01:32:10;9.40;;;5.20;;
61344;SDS011;47216;42.656;23.232;2023-05-17T01:34:38;8.53;;;4.23;;
61344;SDS011;47216;42.656;23.232;2023-05-17T01:37:06;14.73;;;4.93;;
61344;SDS011;47216;42.656;23.232;2023-05-17T01:39:33;9.33;;;4.73;;
61344;SDS011;47216;42.656;23.232;2023-05-17T01:42:03;12.30;;;4.67;;
61344;SDS011;47216;42.656;23.232;2023-05-17T01:44:36;5.97;;;4.33;;
61344;SDS011;47216;42.656;23.232;2023-05-17T01:47:11;12.97;;;4.77;;
61344;SDS011;47216;42.656;23.232;2023-05-17T01:49:42;10.53;;;4.87;;
61344;SDS011;47216;42.656;23.232;2023-05-17T01:52:15;9.93;;;5.07;;
61344;SDS011;47216;42.656;23.232;2023-05-17T01:54:46;8.07;;;4.87;;
61344;SDS011;47216;42.656;23.232;2023-05-17T01:57:16;10.17;;;5.13;;
61344;SDS011;47216;42.656;23.232;2023-05-17T01:59:47;9.00;;;5.13;;
61344;SDS011;47216;42.656;23.232;2023-05-17T02:02:17;13.17;;;5.43;;
61344;SDS011;47216;42.656;23.232;2023-05-17T02:04:46;11.33;;;5.47;;
61344;SDS011;47216;42.656;23.232;2023-05-17T02:07:13;13.50;;;4.97;;
61344;SDS011;47216;42.656;23.232;2023-05-17T02:09:40;8.70;;;4.60;;
61344;SDS011;47216;42.656;23.232;2023-05-17T02:12:07;13.03;;;5.67;;
61344;SDS011;47216;42.656;23.232;2023-05-17T02:14:34;11.73;;;5.97;;
61344;SDS011;47216;42.656;23.232;2023-05-17T02:17:02;9.10;;;6.00;;
61344;SDS011;47216;42.656;23.232;2023-05-17T02:19:30;8.70;;;5.97;;
61344;SDS011;47216;42.656;23.232;2023-05-17T02:21:57;13.37;;;5.97;;
61344;SDS011;47216;42.656;23.232;2023-05-17T02:24:24;9.17;;;5.57;;
61344;SDS011;47216;42.656;23.232;2023-05-17T02:26:51;7.67;;;5.97;;
61344;SDS011;47216;42.656;23.232;2023-05-17T02:29:17;11.47;;;6.50;;
61344;SDS011;47216;42.656;23.232;2023-05-17T02:31:44;10.57;;;5.87;;
61344;SDS011;47216;42.656;23.232;2023-05-17T02:34:14;11.03;;;7.23;;
61344;SDS011;47216;42.656;23.232;2023-05-17T02:36:41;13.87;;;6.93;;
61344;SDS011;47216;42.656;23.232;2023-05-17T02:39:08;10.37;;;6.53;;
61344;SDS011;47216;42.656;23.232;2023-05-17T02:41:35;10.33;;;6.80;;
61344;SDS011;47216;42.656;23.232;2023-05-17T02:44:02;10.87;;;7.40;;
61344;SDS011;47216;42.656;23.232;2023-05-17T02:46:29;15.13;;;10.20;;
61344;SDS011;47216;42.656;23.232;2023-05-17T02:48:56;17.13;;;8.90;;
61344;SDS011;47216;42.656;23.232;2023-05-17T02:51:24;10.67;;;7.37;;
61344;SDS011;47216;42.656;23.232;2023-05-17T02:53:51;10.87;;;7.70;;
61344;SDS011;47216;42.656;23.232;2023-05-17T02:56:18;15.23;;;7.27;;
61344;SDS011;47216;42.656;23.232;2023-05-17T02:58:45;12.27;;;7.20;;
61344;SDS011;47216;42.656;23.232;2023-05-17T03:01:12;14.23;;;6.90;;
61344;SDS011;47216;42.656;23.232;2023-05-17T03:03:38;14.70;;;6.83;;
61344;SDS011;47216;42.656;23.232;2023-05-17T03:06:05;12.40;;;7.40;;
61344;SDS011;47216;42.656;23.232;2023-05-17T03:08:34;14.50;;;8.47;;
61344;SDS011;47216;42.656;23.232;2023-05-17T03:11:01;13.27;;;7.73;;
61344;SDS011;47216;42.656;23.232;2023-05-17T03:13:27;13.90;;;8.47;;
61344;SDS011;47216;42.656;23.232;2023-05-17T03:15:54;9.57;;;7.20;;
61344;SDS011;47216;42.656;23.232;2023-05-17T03:18:21;9.43;;;7.50;;
61344;SDS011;47216;42.656;23.232;2023-05-17T03:20:48;11.63;;;6.93;;
61344;SDS011;47216;42.656;23.232;2023-05-17T03:23:15;10.33;;;7.40;;
61344;SDS011;47216;42.656;23.232;2023-05-17T03:25:44;15.53;;;7.97;;
61344;SDS011;47216;42.656;23.232;2023-05-17T03:28:11;8.77;;;6.37;;
61344;SDS011;47216;42.656;23.232;2023-05-17T03:30:38;11.70;;;6.37;;
61344;SDS011;47216;42.656;23.232;2023-05-17T03:33:05;13.83;;;6.80;;
61344;SDS011;47216;42.656;23.232;2023-05-17T03:35:32;11.93;;;6.83;;
61344;SDS011;47216;42.656;23.232;2023-05-17T03:37:59;10.07;;;7.13;;
61344;SDS011;47216;42.656;23.232;2023-05-17T03:40:25;12.17;;;6.83;;
61344;SDS011;47216;42.656;23.232;2023-05-17T03:42:54;11.33;;;6.40;;
61344;SDS011;47216;42.656;23.232;2023-05-17T03:45:21;8.87;;;6.40;;
61344;SDS011;47216;42.656;23.232;2023-05-17T03:47:48;14.53;;;6.80;;
61344;SDS011;47216;42.656;23.232;2023-05-17T03:50:15;10.83;;;6.40;;
61344;SDS011;47216;42.656;23.232;2023-05-17T03:52:42;12.13;;;8.37;;
61344;SDS011;47216;42.656;23.232;2023-05-17T03:55:10;12.93;;;8.17;;
61344;SDS011;47216;42.656;23.232;2023-05-17T03:57:37;8.23;;;5.80;;
61344;SDS011;47216;42.656;23.232;2023-05-17T04:00:06;12.23;;;6.10;;
61344;SDS011;47216;42.656;23.232;2023-05-17T04:02:34;8.97;;;5.57;;
61344;SDS011;47216;42.656;23.232;2023-05-17T04:05:01;14.03;;;6.27;;
61344;SDS011;47216;42.656;23.232;2023-05-17T04:07:28;8.93;;;6.43;;
61344;SDS011;47216;42.656;23.232;2023-05-17T04:09:55;17.40;;;11.50;;
61344;SDS011;47216;42.656;23.232;2023-05-17T04:12:24;13.77;;;9.27;;
61344;SDS011;47216;42.656;23.232;2023-05-17T04:14:50;11.13;;;6.57;;
61344;SDS011;47216;42.656;23.232;2023-05-17T04:17:19;13.23;;;6.23;;
61344;SDS011;47216;42.656;23.232;2023-05-17T04:19:46;19.53;;;6.60;;
61344;SDS011;47216;42.656;23.232;2023-05-17T04:22:12;15.20;;;6.10;;
61344;SDS011;47216;42.656;23.232;2023-05-17T04:24:39;8.50;;;5.80;;
61344;SDS011;47216;42.656;23.232;2023-05-17T04:27:06;22.80;;;6.33;;
61344;SDS011;47216;42.656;23.232;2023-05-17T04:29:33;13.33;;;5.43;;
61344;SDS011;47216;42.656;23.232;2023-05-17T04:32:00;11.73;;;6.07;;
61344;SDS011;47216;42.656;23.232;2023-05-17T04:34:28;17.70;;;6.30;;
61344;SDS011;47216;42.656;23.232;2023-05-17T04:36:56;14.77;;;6.93;;
61344;SDS011;47216;42.656;23.232;2023-05-17T04:39:23;20.07;;;6.40;;
61344;SDS011;47216;42.656;23.232;2023-05-17T04:41:50;23.10;;;7.30;;
61344;SDS011;47216;42.656;23.232;2023-05-17T04:44:17;15.10;;;6.77;;
61344;SDS011;47216;42.656;23.232;2023-05-17T04:46:44;14.67;;;7.07;;
61344;SDS011;47216;42.656;23.232;2023-05-17T04:49:11;13.03;;;6.90;;
61344;SDS011;47216;42.656;23.232;2023-05-17T04:51:39;11.13;;;6.93;;
61344;SDS011;47216;42.656;23.232;2023-05-17T04:54:06;14.17;;;7.73;;
61344;SDS011;47216;42.656;23.232;2023-05-17T04:56:33;12.63;;;8.17;;
61344;SDS011;47216;42.656;23.232;2023-05-17T04:59:00;15.00;;;8.30;;
61344;SDS011;47216;42.656;23.232;2023-05-17T05:01:28;17.50;;;9.10;;
61344;SDS011;47216;42.656;23.232;2023-05-17T05:03:55;18.67;;;9.33;;
61344;SDS011;47216;42.656;23.232;2023-05-17T05:06:22;20.17;;;10.17;;
61344;SDS011;47216;42.656;23.232;2023-05-17T05:08:50;22.40;;;9.93;;
61344;SDS011;47216;42.656;23.232;2023-05-17T05:11:17;17.33;;;9.73;;
61344;SDS011;47216;42.656;23.232;2023-05-17T05:13:44;13.40;;;9.77;;
61344;SDS011;47216;42.656;23.232;2023-05-17T05:16:10;19.97;;;13.13;;
61344;SDS011;47216;42.656;23.232;2023-05-17T05:18:37;16.97;;;10.70;;
61344;SDS011;47216;42.656;23.232;2023-05-17T05:21:04;20.03;;;11.43;;
61344;SDS011;47216;42.656;23.232;2023-05-17T05:23:31;17.00;;;11.07;;
61344;SDS011;47216;42.656;23.232;2023-05-17T05:25:59;22.43;;;10.97;;
61344;SDS011;47216;42.656;23.232;2023-05-17T05:28:26;13.53;;;9.57;;
61344;SDS011;47216;42.656;23.232;2023-05-17T05:30:55;15.10;;;10.60;;
61344;SDS011;47216;42.656;23.232;2023-05-17T05:33:24;21.83;;;10.17;;
61344;SDS011;47216;42.656;23.232;2023-05-17T05:35:51;16.63;;;9.87;;
61344;SDS011;47216;42.656;23.232;2023-05-17T05:38:18;17.47;;;11.37;;
61344;SDS011;47216;42.656;23.232;2023-05-17T05:40:45;19.97;;;11.20;;
61344;SDS011;47216;42.656;23.232;2023-05-17T05:43:14;14.90;;;10.57;;
61344;SDS011;47216;42.656;23.232;2023-05-17T05:45:41;22.00;;;11.13;;
61344;SDS011;47216;42.656;23.232;2023-05-17T05:48:10;19.67;;;11.77;;
61344;SDS011;47216;42.656;23.232;2023-05-17T05:50:38;19.63;;;11.17;;
61344;SDS011;47216;42.656;23.232;2023-05-17T05:53:05;19.70;;;11.63;;
61344;SDS011;47216;42.656;23.232;2023-05-17T05:55:32;19.60;;;11.50;;
61344;SDS011;47216;42.656;23.232;2023-05-17T05:57:59;17.33;;;11.00;;
61344;SDS011;47216;42.656;23.232;2023-05-17T06:00:27;18.83;;;11.07;;
61344;SDS011;47216;42.656;23.232;2023-05-17T06:02:54;21.23;;;12.00;;
61344;SDS011;47216;42.656;23.232;2023-05-17T06:05:23;19.13;;;10.80;;
61344;SDS011;47216;42.656;23.232;2023-05-17T06:07:50;14.60;;;10.13;;
61344;SDS011;47216;42.656;23.232;2023-05-17T06:10:17;14.33;;;10.37;;
61344;SDS011;47216;42.656;23.232;2023-05-17T06:12:44;16.37;;;10.20;;
61344;SDS011;47216;42.656;23.232;2023-05-17T06:15:11;19.47;;;9.90;;
61344;SDS011;47216;42.656;23.232;2023-05-17T06:17:39;20.97;;;10.03;;
61344;SDS011;47216;42.656;23.232;2023-05-17T06:20:06;17.23;;;9.83;;
61344;SDS011;47216;42.656;23.232;2023-05-17T06:22:34;18.30;;;9.73;;
61344;SDS011;47216;42.656;23.232;2023-05-17T06:25:01;15.93;;;9.73;;
61344;SDS011;47216;42.656;23.232;2023-05-17T06:27:29;14.80;;;8.97;;
61344;SDS011;47216;42.656;23.232;2023-05-17T06:29:56;13.40;;;9.63;;
61344;SDS011;47216;42.656;23.232;2023-05-17T06:32:23;15.60;;;9.17;;
61344;SDS011;47216;42.656;23.232;2023-05-17T06:34:51;15.13;;;8.77;;
61344;SDS011;47216;42.656;23.232;2023-05-17T06:37:18;12.90;;;7.60;;
61344;SDS011;47216;42.656;23.232;2023-05-17T06:39:45;16.10;;;8.63;;
61344;SDS011;47216;42.656;23.232;2023-05-17T06:42:11;12.63;;;8.50;;
61344;SDS011;47216;42.656;23.232;2023-05-17T06:44:38;13.77;;;8.30;;
61344;SDS011;47216;42.656;23.232;2023-05-17T06:47:05;13.83;;;8.80;;
61344;SDS011;47216;42.656;23.232;2023-05-17T06:49:32;14.43;;;8.67;;
61344;SDS011;47216;42.656;23.232;2023-05-17T06:52:00;17.03;;;8.37;;
61344;SDS011;47216;42.656;23.232;2023-05-17T06:54:29;21.73;;;8.53;;
61344;SDS011;47216;42.656;23.232;2023-05-17T06:56:58;14.80;;;8.73;;
61344;SDS011;47216;42.656;23.232;2023-05-17T06:59:25;13.80;;;8.03;;
61344;SDS011;47216;42.656;23.232;2023-05-17T07:01:52;17.83;;;7.70;;
61344;SDS011;47216;42.656;23.232;2023-05-17T07:04:19;10.83;;;7.47;;
61344;SDS011;47216;42.656;23.232;2023-05-17T07:06:45;14.73;;;7.87;;
61344;SDS011;47216;42.656;23.232;2023-05-17T07:09:14;15.73;;;7.97;;
61344;SDS011;47216;42.656;23.232;2023-05-17T07:11:41;10.80;;;7.20;;
61344;SDS011;47216;42.656;23.232;2023-05-17T07:14:08;13.07;;;7.00;;
61344;SDS011;47216;42.656;23.232;2023-05-17T07:16:35;10.53;;;7.27;;
61344;SDS011;47216;42.656;23.232;2023-05-17T07:19:02;10.90;;;7.10;;
61344;SDS011;47216;42.656;23.232;2023-05-17T07:21:29;12.90;;;7.13;;
61344;SDS011;47216;42.656;23.232;2023-05-17T07:23:56;12.73;;;6.73;;
61344;SDS011;47216;42.656;23.232;2023-05-17T07:26:24;16.43;;;7.17;;
61344;SDS011;47216;42.656;23.232;2023-05-17T07:28:51;11.60;;;6.77;;
61344;SDS011;47216;42.656;23.232;2023-05-17T07:31:17;12.80;;;6.27;;
61344;SDS011;47216;42.656;23.232;2023-05-17T07:33:44;9.60;;;6.43;;
61344;SDS011;47216;42.656;23.232;2023-05-17T07:36:11;9.50;;;6.83;;
61344;SDS011;47216;42.656;23.232;2023-05-17T07:38:38;16.43;;;7.77;;
61344;SDS011;47216;42.656;23.232;2023-05-17T07:41:05;12.63;;;7.67;;
61344;SDS011;47216;42.656;23.232;2023-05-17T07:43:35;13.47;;;7.57;;
61344;SDS011;47216;42.656;23.232;2023-05-17T07:46:03;14.67;;;8.13;;
61344;SDS011;47216;42.656;23.232;2023-05-17T07:48:29;15.73;;;7.83;;
61344;SDS011;47216;42.656;23.232;2023-05-17T07:50:56;15.97;;;8.60;;
61344;SDS011;47216;42.656;23.232;2023-05-17T07:53:23;12.77;;;8.27;;
61344;SDS011;47216;42.656;23.232;2023-05-17T07:55:50;16.90;;;8.20;;
61344;SDS011;47216;42.656;23.232;2023-05-17T07:58:17;12.40;;;8.20;;
61344;SDS011;47216;42.656;23.232;2023-05-17T08:00:47;13.87;;;7.27;;
61344;SDS011;47216;42.656;23.232;2023-05-17T08:03:14;13.03;;;7.40;;
61344;SDS011;47216;42.656;23.232;2023-05-17T08:05:41;15.10;;;8.10;;
61344;SDS011;47216;42.656;23.232;2023-05-17T08:08:08;14.53;;;7.63;;
61344;SDS011;47216;42.656;23.232;2023-05-17T08:10:35;14.17;;;8.13;;
61344;SDS011;47216;42.656;23.232;2023-05-17T08:13:02;15.33;;;8.00;;
61344;SDS011;47216;42.656;23.232;2023-05-17T08:15:29;17.27;;;8.07;;
61344;SDS011;47216;42.656;23.232;2023-05-17T08:17:57;14.30;;;8.03;;
61344;SDS011;47216;42.656;23.232;2023-05-17T08:20:24;13.93;;;7.07;;
61344;SDS011;47216;42.656;23.232;2023-05-17T08:22:50;15.77;;;7.60;;
61344;SDS011;47216;42.656;23.232;2023-05-17T08:25:18;14.03;;;7.10;;
61344;SDS011;47216;42.656;23.232;2023-05-17T08:27:45;11.10;;;6.60;;
61344;SDS011;47216;42.656;23.232;2023-05-17T08:30:12;13.20;;;7.87;;
61344;SDS011;47216;42.656;23.232;2023-05-17T08:32:39;11.63;;;7.53;;
61344;SDS011;47216;42.656;23.232;2023-05-17T08:35:08;13.13;;;7.13;;
61344;SDS011;47216;42.656;23.232;2023-05-17T08:37:34;12.17;;;7.03;;
61344;SDS011;47216;42.656;23.232;2023-05-17T08:40:02;14.63;;;6.93;;
61344;SDS011;47216;42.656;23.232;2023-05-17T08:42:29;10.80;;;6.87;;
61344;SDS011;47216;42.656;23.232;2023-05-17T08:44:57;11.97;;;7.10;;
61344;SDS011;47216;42.656;23.232;2023-05-17T08:47:24;16.03;;;5.97;;
61344;SDS011;47216;42.656;23.232;2023-05-17T08:49:57;11.77;;;7.03;;
61344;SDS011;47216;42.656;23.232;2023-05-17T08:52:30;10.57;;;7.57;;
61344;SDS011;47216;42.656;23.232;2023-05-17T08:54:57;15.03;;;6.37;;
61344;SDS011;47216;42.656;23.232;2023-05-17T08:57:25;13.80;;;6.87;;
61344;SDS011;47216;42.656;23.232;2023-05-17T08:59:54;8.77;;;5.97;;
61344;SDS011;47216;42.656;23.232;2023-05-17T09:02:21;13.93;;;6.97;;
61344;SDS011;47216;42.656;23.232;2023-05-17T09:04:49;14.93;;;6.53;;
61344;SDS011;47216;42.656;23.232;2023-05-17T09:07:19;11.10;;;6.23;;
61344;SDS011;47216;42.656;23.232;2023-05-17T09:09:50;13.00;;;6.33;;
61344;SDS011;47216;42.656;23.232;2023-05-17T09:12:18;13.30;;;6.37;;
61344;SDS011;47216;42.656;23.232;2023-05-17T09:14:45;14.13;;;6.40;;
61344;SDS011;47216;42.656;23.232;2023-05-17T09:17:12;11.73;;;6.10;;
61344;SDS011;47216;42.656;23.232;2023-05-17T09:19:41;9.80;;;5.60;;
61344;SDS011;47216;42.656;23.232;2023-05-17T09:22:11;15.57;;;5.93;;
61344;SDS011;47216;42.656;23.232;2023-05-17T09:24:38;11.20;;;5.80;;
61344;SDS011;47216;42.656;23.232;2023-05-17T09:27:07;8.05;;;5.65;;
61344;SDS011;47216;42.656;23.232;2023-05-17T09:29:34;8.13;;;6.33;;
61344;SDS011;47216;42.656;23.232;2023-05-17T09:32:13;16.13;;;6.67;;
61344;SDS011;47216;42.656;23.232;2023-05-17T09:34:42;8.77;;;5.77;;
61344;SDS011;47216;42.656;23.232;2023-05-17T09:37:11;11.88;;;6.05;;
61344;SDS011;47216;42.656;23.232;2023-05-17T09:39:39;15.32;;;6.55;;
61344;SDS011;47216;42.656;23.232;2023-05-17T09:42:08;13.70;;;6.43;;
61344;SDS011;47216;42.656;23.232;2023-05-17T09:44:47;12.87;;;6.67;;
61344;SDS011;47216;42.656;23.232;2023-05-17T09:47:20;14.57;;;5.67;;
61344;SDS011;47216;42.656;23.232;2023-05-17T09:49:49;12.37;;;5.43;;
61344;SDS011;47216;42.656;23.232;2023-05-17T09:52:16;12.67;;;5.80;;
61344;SDS011;47216;42.656;23.232;2023-05-17T09:54:50;10.00;;;4.90;;
61344;SDS011;47216;42.656;23.232;2023-05-17T09:57:20;15.87;;;6.80;;
61344;SDS011;47216;42.656;23.232;2023-05-17T09:59:47;12.90;;;6.13;;
61344;SDS011;47216;42.656;23.232;2023-05-17T10:02:18;12.77;;;6.80;;
61344;SDS011;47216;42.656;23.232;2023-05-17T10:04:47;13.73;;;6.97;;
61344;SDS011;47216;42.656;23.232;2023-05-17T10:07:16;19.03;;;8.00;;
61344;SDS011;47216;42.656;23.232;2023-05-17T10:09:45;14.23;;;7.07;;
61344;SDS011;47216;42.656;23.232;2023-05-17T10:12:15;17.57;;;7.17;;
61344;SDS011;47216;42.656;23.232;2023-05-17T10:14:44;16.10;;;6.97;;
61344;SDS011;47216;42.656;23.232;2023-05-17T10:17:12;18.43;;;7.13;;
61344;SDS011;47216;42.656;23.232;2023-05-17T10:19:39;14.63;;;7.07;;
61344;SDS011;47216;42.656;23.232;2023-05-17T10:22:06;12.93;;;6.53;;
61344;SDS011;47216;42.656;23.232;2023-05-17T10:24:34;12.20;;;6.60;;
61344;SDS011;47216;42.656;23.232;2023-05-17T10:27:02;12.60;;;5.53;;
61344;SDS011;47216;42.656;23.232;2023-05-17T10:29:31;11.53;;;5.20;;
61344;SDS011;47216;42.656;23.232;2023-05-17T10:32:02;12.37;;;5.43;;
61344;SDS011;47216;42.656;23.232;2023-05-17T10:34:31;18.43;;;6.20;;
61344;SDS011;47216;42.656;23.232;2023-05-17T10:36:59;12.47;;;6.27;;
61344;SDS011;47216;42.656;23.232;2023-05-17T10:39:27;12.93;;;5.57;;
61344;SDS011;47216;42.656;23.232;2023-05-17T10:41:56;16.83;;;5.87;;
61344;SDS011;47216;42.656;23.232;2023-05-17T10:44:24;15.13;;;6.10;;
61344;SDS011;47216;42.656;23.232;2023-05-17T10:46:53;22.00;;;9.53;;
61344;SDS011;47216;42.656;23.232;2023-05-17T10:49:24;20.53;;;8.60;;
61344;SDS011;47216;42.656;23.232;2023-05-17T10:51:52;23.50;;;8.13;;
61344;SDS011;47216;42.656;23.232;2023-05-17T10:54:19;21.03;;;7.60;;
61344;SDS011;47216;42.656;23.232;2023-05-17T10:56:46;16.07;;;6.07;;
61344;SDS011;47216;42.656;23.232;2023-05-17T10:59:15;14.60;;;4.73;;
61344;SDS011;47216;42.656;23.232;2023-05-17T11:01:52;9.47;;;4.60;;
61344;SDS011;47216;42.656;23.232;2023-05-17T11:04:31;14.80;;;5.00;;
61344;SDS011;47216;42.656;23.232;2023-05-17T11:10:01;11.13;;;5.20;;
61344;SDS011;47216;42.656;23.232;2023-05-17T11:12:34;14.07;;;5.60;;
61344;SDS011;47216;42.656;23.232;2023-05-17T11:15:06;12.07;;;5.37;;
61344;SDS011;47216;42.656;23.232;2023-05-17T11:17:35;11.43;;;5.13;;
61344;SDS011;47216;42.656;23.232;2023-05-17T11:23:14;15.40;;;6.07;;
61344;SDS011;47216;42.656;23.232;2023-05-17T11:25:43;12.47;;;6.00;;
61344;SDS011;47216;42.656;23.232;2023-05-17T11:28:16;17.00;;;5.80;;
61344;SDS011;47216;42.656;23.232;2023-05-17T11:30:44;13.27;;;6.00;;
61344;SDS011;47216;42.656;23.232;2023-05-17T11:33:15;13.33;;;5.63;;
61344;SDS011;47216;42.656;23.232;2023-05-17T11:35:43;18.13;;;6.10;;
61344;SDS011;47216;42.656;23.232;2023-05-17T11:38:15;13.63;;;5.67;;
61344;SDS011;47216;42.656;23.232;2023-05-17T11:40:43;17.50;;;7.10;;
61344;SDS011;47216;42.656;23.232;2023-05-17T11:43:12;13.57;;;6.57;;
61344;SDS011;47216;42.656;23.232;2023-05-17T11:45:44;18.10;;;6.17;;
61344;SDS011;47216;42.656;23.232;2023-05-17T11:48:13;11.30;;;6.03;;
61344;SDS011;47216;42.656;23.232;2023-05-17T11:50:41;19.10;;;6.97;;
61344;SDS011;47216;42.656;23.232;2023-05-17T11:53:08;13.77;;;7.17;;
61344;SDS011;47216;42.656;23.232;2023-05-17T11:55:38;15.87;;;6.93;;
61344;SDS011;47216;42.656;23.232;2023-05-17T11:58:06;14.50;;;6.83;;
61344;SDS011;47216;42.656;23.232;2023-05-17T12:00:33;13.40;;;7.07;;
61344;SDS011;47216;42.656;23.232;2023-05-17T12:03:17;15.00;;;6.70;;
61344;SDS011;47216;42.656;23.232;2023-05-17T12:05:45;15.37;;;7.30;;
61344;SDS011;47216;42.656;23.232;2023-05-17T12:08:13;14.37;;;6.50;;
61344;SDS011;47216;42.656;23.232;2023-05-17T12:10:50;11.43;;;5.83;;
61344;SDS011;47216;42.656;23.232;2023-05-17T12:13:17;15.70;;;5.63;;
61344;SDS011;47216;42.656;23.232;2023-05-17T12:15:47;13.10;;;6.63;;
61344;SDS011;47216;42.656;23.232;2023-05-17T12:18:18;11.60;;;6.90;;
61344;SDS011;47216;42.656;23.232;2023-05-17T12:20:52;16.40;;;6.47;;
61344;SDS011;47216;42.656;23.232;2023-05-17T12:23:24;17.77;;;6.83;;
61344;SDS011;47216;42.656;23.232;2023-05-17T12:26:02;12.27;;;6.27;;
61344;SDS011;47216;42.656;23.232;2023-05-17T12:28:30;15.90;;;7.30;;
61344;SDS011;47216;42.656;23.232;2023-05-17T12:30:57;10.73;;;6.60;;
61344;SDS011;47216;42.656;23.232;2023-05-17T12:33:26;12.97;;;6.30;;
61344;SDS011;47216;42.656;23.232;2023-05-17T12:35:56;11.30;;;5.50;;
61344;SDS011;47216;42.656;23.232;2023-05-17T12:38:23;19.07;;;6.27;;
61344;SDS011;47216;42.656;23.232;2023-05-17T12:40:52;16.87;;;5.67;;
61344;SDS011;47216;42.656;23.232;2023-05-17T12:43:23;9.10;;;4.80;;
61344;SDS011;47216;42.656;23.232;2023-05-17T12:45:51;14.07;;;5.43;;
61344;SDS011;47216;42.656;23.232;2023-05-17T12:48:22;10.10;;;4.97;;
61344;SDS011;47216;42.656;23.232;2023-05-17T12:50:50;14.60;;;5.90;;
61344;SDS011;47216;42.656;23.232;2023-05-17T12:53:19;11.80;;;5.93;;
61344;SDS011;47216;42.656;23.232;2023-05-17T12:55:47;10.33;;;5.37;;
61344;SDS011;47216;42.656;23.232;2023-05-17T12:58:14;12.87;;;6.23;;
61344;SDS011;47216;42.656;23.232;2023-05-17T13:00:56;12.63;;;6.10;;
61344;SDS011;47216;42.656;23.232;2023-05-17T13:03:23;15.43;;;6.20;;
61344;SDS011;47216;42.656;23.232;2023-05-17T13:05:58;16.37;;;6.73;;
61344;SDS011;47216;42.656;23.232;2023-05-17T13:08:26;13.17;;;6.70;;
61344;SDS011;47216;42.656;23.232;2023-05-17T13:11:03;10.30;;;6.47;;
61344;SDS011;47216;42.656;23.232;2023-05-17T13:13:31;14.63;;;6.30;;
61344;SDS011;47216;42.656;23.232;2023-05-17T13:16:00;10.03;;;6.60;;
61344;SDS011;47216;42.656;23.232;2023-05-17T13:18:27;12.83;;;6.87;;
61344;SDS011;47216;42.656;23.232;2023-05-17T13:20:53;15.40;;;6.50;;
61344;SDS011;47216;42.656;23.232;2023-05-17T13:23:20;9.70;;;6.03;;
61344;SDS011;47216;42.656;23.232;2023-05-17T13:25:47;11.53;;;6.13;;
61344;SDS011;47216;42.656;23.232;2023-05-17T13:28:14;11.93;;;6.43;;
61344;SDS011;47216;42.656;23.232;2023-05-17T13:30:41;17.47;;;6.77;;
61344;SDS011;47216;42.656;23.232;2023-05-17T13:33:15;13.93;;;6.20;;
61344;SDS011;47216;42.656;23.232;2023-05-17T13:35:42;11.53;;;5.90;;
61344;SDS011;47216;42.656;23.232;2023-05-17T13:38:08;14.17;;;5.97;;
61344;SDS011;47216;42.656;23.232;2023-05-17T13:40:35;8.47;;;5.27;;
61344;SDS011;47216;42.656;23.232;2023-05-17T13:43:02;15.70;;;6.03;;
61344;SDS011;47216;42.656;23.232;2023-05-17T13:45:29;11.03;;;5.30;;
61344;SDS011;47216;42.656;23.232;2023-05-17T13:47:56;11.90;;;5.43;;
61344;SDS011;47216;42.656;23.232;2023-05-17T13:50:25;9.27;;;6.10;;
61344;SDS011;47216;42.656;23.232;2023-05-17T13:52:51;12.20;;;6.67;;
61344;SDS011;47216;42.656;23.232;2023-05-17T13:55:18;10.93;;;5.70;;
61344;SDS011;47216;42.656;23.232;2023-05-17T13:57:45;13.03;;;5.80;;
61344;SDS011;47216;42.656;23.232;2023-05-17T14:00:12;10.97;;;6.00;;
61344;SDS011;47216;42.656;23.232;2023-05-17T14:02:40;11.27;;;6.03;;
61344;SDS011;47216;42.656;23.232;2023-05-17T14:05:07;16.10;;;6.47;;
61344;SDS011;47216;42.656;23.232;2023-05-17T14:07:36;12.03;;;6.00;;
61344;SDS011;47216;42.656;23.232;2023-05-17T14:10:06;10.97;;;6.40;;
61344;SDS011;47216;42.656;23.232;2023-05-17T14:12:33;13.73;;;6.53;;
61344;SDS011;47216;42.656;23.232;2023-05-17T14:15:00;17.27;;;6.70;;
61344;SDS011;47216;42.656;23.232;2023-05-17T14:17:27;13.77;;;7.17;;
61344;SDS011;47216;42.656;23.232;2023-05-17T14:19:54;10.47;;;6.17;;
61344;SDS011;47216;42.656;23.232;2023-05-17T14:22:21;8.77;;;6.23;;
61344;SDS011;47216;42.656;23.232;2023-05-17T14:24:49;12.37;;;6.53;;
61344;SDS011;47216;42.656;23.232;2023-05-17T14:27:16;12.13;;;7.00;;
61344;SDS011;47216;42.656;23.232;2023-05-17T14:29:43;14.60;;;6.80;;
61344;SDS011;47216;42.656;23.232;2023-05-17T14:32:10;11.73;;;6.47;;
61344;SDS011;47216;42.656;23.232;2023-05-17T14:34:38;11.37;;;6.47;;